sensor_id;sensor_type;location;lat;lon;timestamp;temperature;humidity
73572;DHT22;61854;48.510;-2.770;2022-12-07T00:01:16;2.80;95.90
73572;DHT22;61854;48.510;-2.770;2022-12-07T00:03:43;2.80;95.90
73572;DHT22;61854;48.510;-2.770;2022-12-07T00:06:11;2.80;95.80
73572;DHT22;61854;48.510;-2.770;2022-12-07T00:08:40;2.80;95.80
73572;DHT22;61854;48.510;-2.770;2022-12-07T00:11:14;2.70;95.90
73572;DHT22;61854;48.510;-2.770;2022-12-07T00:13:41;2.70;95.70
73572;DHT22;61854;48.510;-2.770;2022-12-07T00:16:09;2.70;95.70
73572;DHT22;61854;48.510;-2.770;2022-12-07T00:18:36;2.70;95.70
73572;DHT22;61854;48.510;-2.770;2022-12-07T00:21:04;2.70;95.60
73572;DHT22;61854;48.510;-2.770;2022-12-07T00:23:30;2.60;95.50
73572;DHT22;61854;48.510;-2.770;2022-12-07T00:25:56;2.60;95.50
73572;DHT22;61854;48.510;-2.770;2022-12-07T00:28:22;2.60;95.50
73572;DHT22;61854;48.510;-2.770;2022-12-07T00:30:47;2.60;95.50
73572;DHT22;61854;48.510;-2.770;2022-12-07T00:33:13;2.60;95.50
73572;DHT22;61854;48.510;-2.770;2022-12-07T00:35:38;2.60;95.50
73572;DHT22;61854;48.510;-2.770;2022-12-07T00:38:04;2.60;95.70
73572;DHT22;61854;48.510;-2.770;2022-12-07T00:40:29;2.60;95.70
73572;DHT22;61854;48.510;-2.770;2022-12-07T00:42:55;2.60;95.80
73572;DHT22;61854;48.510;-2.770;2022-12-07T00:45:21;2.60;95.90
73572;DHT22;61854;48.510;-2.770;2022-12-07T00:47:46;2.60;95.90
73572;DHT22;61854;48.510;-2.770;2022-12-07T00:50:12;2.60;95.70
73572;DHT22;61854;48.510;-2.770;2022-12-07T00:52:38;2.60;95.60
73572;DHT22;61854;48.510;-2.770;2022-12-07T00:55:03;2.60;95.50
73572;DHT22;61854;48.510;-2.770;2022-12-07T00:57:30;2.50;95.40
73572;DHT22;61854;48.510;-2.770;2022-12-07T00:59:56;2.50;95.40
73572;DHT22;61854;48.510;-2.770;2022-12-07T01:02:23;2.50;95.40
73572;DHT22;61854;48.510;-2.770;2022-12-07T01:04:49;2.50;95.40
73572;DHT22;61854;48.510;-2.770;2022-12-07T01:07:14;2.60;95.50
73572;DHT22;61854;48.510;-2.770;2022-12-07T01:09:40;2.60;95.30
73572;DHT22;61854;48.510;-2.770;2022-12-07T01:12:06;2.50;95.00
73572;DHT22;61854;48.510;-2.770;2022-12-07T01:14:31;2.50;94.90
73572;DHT22;61854;48.510;-2.770;2022-12-07T01:16:57;2.50;95.40
73572;DHT22;61854;48.510;-2.770;2022-12-07T01:19:22;2.50;94.90
73572;DHT22;61854;48.510;-2.770;2022-12-07T01:21:48;2.50;94.90
73572;DHT22;61854;48.510;-2.770;2022-12-07T01:24:13;2.50;94.90
73572;DHT22;61854;48.510;-2.770;2022-12-07T01:26:39;2.50;94.80
73572;DHT22;61854;48.510;-2.770;2022-12-07T01:29:05;2.50;95.00
73572;DHT22;61854;48.510;-2.770;2022-12-07T01:31:31;2.50;95.00
73572;DHT22;61854;48.510;-2.770;2022-12-07T01:33:58;2.50;94.90
73572;DHT22;61854;48.510;-2.770;2022-12-07T01:36:33;2.50;94.90
73572;DHT22;61854;48.510;-2.770;2022-12-07T01:39:01;2.50;94.80
73572;DHT22;61854;48.510;-2.770;2022-12-07T01:41:30;2.40;94.90
73572;DHT22;61854;48.510;-2.770;2022-12-07T01:46:48;2.40;95.10
73572;DHT22;61854;48.510;-2.770;2022-12-07T01:49:28;2.40;95.10
73572;DHT22;61854;48.510;-2.770;2022-12-07T01:54:45;2.40;95.00
73572;DHT22;61854;48.510;-2.770;2022-12-07T01:57:13;2.40;94.90
73572;DHT22;61854;48.510;-2.770;2022-12-07T01:59:41;2.30;94.80
73572;DHT22;61854;48.510;-2.770;2022-12-07T02:02:14;2.30;94.90
73572;DHT22;61854;48.510;-2.770;2022-12-07T02:04:43;2.40;95.10
73572;DHT22;61854;48.510;-2.770;2022-12-07T02:07:09;2.40;95.20
73572;DHT22;61854;48.510;-2.770;2022-12-07T02:09:34;2.50;95.20
73572;DHT22;61854;48.510;-2.770;2022-12-07T02:12:01;2.50;95.20
73572;DHT22;61854;48.510;-2.770;2022-12-07T02:14:27;2.60;94.90
73572;DHT22;61854;48.510;-2.770;2022-12-07T02:17:02;2.70;95.20
73572;DHT22;61854;48.510;-2.770;2022-12-07T02:19:53;2.70;95.10
73572;DHT22;61854;48.510;-2.770;2022-12-07T02:25:36;2.80;94.70
73572;DHT22;61854;48.510;-2.770;2022-12-07T02:30:42;2.90;94.40
73572;DHT22;61854;48.510;-2.770;2022-12-07T02:33:14;2.80;94.30
73572;DHT22;61854;48.510;-2.770;2022-12-07T02:40:55;2.70;93.70
73572;DHT22;61854;48.510;-2.770;2022-12-07T02:45:56;2.50;93.90
73572;DHT22;61854;48.510;-2.770;2022-12-07T02:48:24;2.50;94.10
73572;DHT22;61854;48.510;-2.770;2022-12-07T02:50:52;2.50;94.20
73572;DHT22;61854;48.510;-2.770;2022-12-07T02:53:35;2.40;94.40
73572;DHT22;61854;48.510;-2.770;2022-12-07T03:09:53;2.50;94.80
73572;DHT22;61854;48.510;-2.770;2022-12-07T03:12:27;2.60;94.90
73572;DHT22;61854;48.510;-2.770;2022-12-07T03:15:08;2.60;94.80
73572;DHT22;61854;48.510;-2.770;2022-12-07T03:17:37;2.60;94.50
73572;DHT22;61854;48.510;-2.770;2022-12-07T03:20:06;2.60;94.40
73572;DHT22;61854;48.510;-2.770;2022-12-07T03:22:35;2.50;94.30
73572;DHT22;61854;48.510;-2.770;2022-12-07T03:25:09;2.50;94.40
73572;DHT22;61854;48.510;-2.770;2022-12-07T03:30:12;2.50;94.50
73572;DHT22;61854;48.510;-2.770;2022-12-07T03:32:48;2.60;94.50
73572;DHT22;61854;48.510;-2.770;2022-12-07T03:38:00;2.60;94.70
73572;DHT22;61854;48.510;-2.770;2022-12-07T03:40:37;2.70;94.80
73572;DHT22;61854;48.510;-2.770;2022-12-07T03:43:05;2.80;94.70
73572;DHT22;61854;48.510;-2.770;2022-12-07T03:45:38;2.80;94.60
73572;DHT22;61854;48.510;-2.770;2022-12-07T03:48:24;2.80;94.50
73572;DHT22;61854;48.510;-2.770;2022-12-07T03:51:00;2.90;94.30
73572;DHT22;61854;48.510;-2.770;2022-12-07T03:53:35;2.90;94.20
73572;DHT22;61854;48.510;-2.770;2022-12-07T03:56:02;2.90;94.10
73572;DHT22;61854;48.510;-2.770;2022-12-07T03:58:28;2.90;94.00
73572;DHT22;61854;48.510;-2.770;2022-12-07T04:00:55;2.90;94.00
73572;DHT22;61854;48.510;-2.770;2022-12-07T04:03:21;2.90;93.90
73572;DHT22;61854;48.510;-2.770;2022-12-07T04:05:47;3.00;93.90
73572;DHT22;61854;48.510;-2.770;2022-12-07T04:08:13;2.90;93.90
73572;DHT22;61854;48.510;-2.770;2022-12-07T04:10:38;3.00;93.90
73572;DHT22;61854;48.510;-2.770;2022-12-07T04:13:04;3.00;93.90
73572;DHT22;61854;48.510;-2.770;2022-12-07T04:15:30;3.00;93.90
73572;DHT22;61854;48.510;-2.770;2022-12-07T04:17:55;3.00;93.70
73572;DHT22;61854;48.510;-2.770;2022-12-07T04:20:21;3.00;93.50
73572;DHT22;61854;48.510;-2.770;2022-12-07T04:22:47;3.00;93.40
73572;DHT22;61854;48.510;-2.770;2022-12-07T04:25:12;3.00;93.40
73572;DHT22;61854;48.510;-2.770;2022-12-07T04:27:38;3.00;93.50
73572;DHT22;61854;48.510;-2.770;2022-12-07T04:30:04;3.00;93.60
73572;DHT22;61854;48.510;-2.770;2022-12-07T04:32:30;3.00;93.60
73572;DHT22;61854;48.510;-2.770;2022-12-07T04:34:55;3.00;93.70
73572;DHT22;61854;48.510;-2.770;2022-12-07T04:37:21;3.00;93.70
73572;DHT22;61854;48.510;-2.770;2022-12-07T04:39:47;3.10;94.40
73572;DHT22;61854;48.510;-2.770;2022-12-07T04:42:13;3.10;94.10
73572;DHT22;61854;48.510;-2.770;2022-12-07T04:44:39;3.10;94.10
73572;DHT22;61854;48.510;-2.770;2022-12-07T04:47:04;3.20;94.00
73572;DHT22;61854;48.510;-2.770;2022-12-07T04:49:30;3.20;94.00
73572;DHT22;61854;48.510;-2.770;2022-12-07T04:51:56;3.20;93.90
73572;DHT22;61854;48.510;-2.770;2022-12-07T04:54:21;3.20;93.80
73572;DHT22;61854;48.510;-2.770;2022-12-07T04:56:47;3.20;93.80
73572;DHT22;61854;48.510;-2.770;2022-12-07T04:59:15;3.20;93.80
73572;DHT22;61854;48.510;-2.770;2022-12-07T05:01:41;3.20;93.90
73572;DHT22;61854;48.510;-2.770;2022-12-07T05:04:07;3.20;93.90
73572;DHT22;61854;48.510;-2.770;2022-12-07T05:06:33;3.20;93.80
73572;DHT22;61854;48.510;-2.770;2022-12-07T05:08:59;3.20;93.70
73572;DHT22;61854;48.510;-2.770;2022-12-07T05:11:25;3.20;93.80
73572;DHT22;61854;48.510;-2.770;2022-12-07T05:14:18;3.20;93.90
73572;DHT22;61854;48.510;-2.770;2022-12-07T05:16:45;3.30;94.00
73572;DHT22;61854;48.510;-2.770;2022-12-07T05:19:11;3.30;94.00
73572;DHT22;61854;48.510;-2.770;2022-12-07T05:21:37;3.30;94.00
73572;DHT22;61854;48.510;-2.770;2022-12-07T05:24:04;3.30;93.80
73572;DHT22;61854;48.510;-2.770;2022-12-07T05:26:30;3.30;93.70
73572;DHT22;61854;48.510;-2.770;2022-12-07T05:28:56;3.30;93.70
73572;DHT22;61854;48.510;-2.770;2022-12-07T05:31:24;3.30;93.60
73572;DHT22;61854;48.510;-2.770;2022-12-07T05:33:49;3.30;93.60
73572;DHT22;61854;48.510;-2.770;2022-12-07T05:36:15;3.20;93.50
73572;DHT22;61854;48.510;-2.770;2022-12-07T05:38:41;3.20;93.50
73572;DHT22;61854;48.510;-2.770;2022-12-07T05:41:08;3.10;93.50
73572;DHT22;61854;48.510;-2.770;2022-12-07T05:43:55;3.10;93.70
73572;DHT22;61854;48.510;-2.770;2022-12-07T05:46:20;3.00;93.80
73572;DHT22;61854;48.510;-2.770;2022-12-07T05:48:46;2.90;93.70
73572;DHT22;61854;48.510;-2.770;2022-12-07T05:51:11;2.90;93.70
73572;DHT22;61854;48.510;-2.770;2022-12-07T05:53:37;2.80;93.70
73572;DHT22;61854;48.510;-2.770;2022-12-07T05:56:03;2.70;93.80
73572;DHT22;61854;48.510;-2.770;2022-12-07T05:58:28;2.60;93.80
73572;DHT22;61854;48.510;-2.770;2022-12-07T06:01:12;2.50;94.00
73572;DHT22;61854;48.510;-2.770;2022-12-07T06:03:38;2.50;94.30
73572;DHT22;61854;48.510;-2.770;2022-12-07T06:06:03;2.40;94.50
73572;DHT22;61854;48.510;-2.770;2022-12-07T06:08:29;2.40;94.60
73572;DHT22;61854;48.510;-2.770;2022-12-07T06:10:55;2.40;94.70
73572;DHT22;61854;48.510;-2.770;2022-12-07T06:13:40;2.40;94.90
73572;DHT22;61854;48.510;-2.770;2022-12-07T06:16:06;2.40;95.00
73572;DHT22;61854;48.510;-2.770;2022-12-07T06:18:32;2.50;95.10
73572;DHT22;61854;48.510;-2.770;2022-12-07T06:20:57;2.50;95.10
73572;DHT22;61854;48.510;-2.770;2022-12-07T06:23:23;2.60;95.20
73572;DHT22;61854;48.510;-2.770;2022-12-07T06:25:48;2.70;95.30
73572;DHT22;61854;48.510;-2.770;2022-12-07T06:28:14;2.70;95.30
73572;DHT22;61854;48.510;-2.770;2022-12-07T06:30:39;2.80;95.40
73572;DHT22;61854;48.510;-2.770;2022-12-07T06:33:05;2.80;95.50
73572;DHT22;61854;48.510;-2.770;2022-12-07T06:35:32;2.80;95.70
73572;DHT22;61854;48.510;-2.770;2022-12-07T06:37:58;2.80;94.80
73572;DHT22;61854;48.510;-2.770;2022-12-07T06:40:24;2.80;94.60
73572;DHT22;61854;48.510;-2.770;2022-12-07T06:42:49;2.80;94.90
73572;DHT22;61854;48.510;-2.770;2022-12-07T06:45:15;2.80;94.70
73572;DHT22;61854;48.510;-2.770;2022-12-07T06:47:41;2.90;94.60
73572;DHT22;61854;48.510;-2.770;2022-12-07T06:50:07;2.90;94.20
73572;DHT22;61854;48.510;-2.770;2022-12-07T06:52:33;2.90;93.90
73572;DHT22;61854;48.510;-2.770;2022-12-07T06:54:59;2.90;93.90
73572;DHT22;61854;48.510;-2.770;2022-12-07T06:57:25;2.90;93.70
73572;DHT22;61854;48.510;-2.770;2022-12-07T06:59:51;2.90;93.70
73572;DHT22;61854;48.510;-2.770;2022-12-07T07:02:16;3.00;93.70
73572;DHT22;61854;48.510;-2.770;2022-12-07T07:04:42;3.00;93.60
73572;DHT22;61854;48.510;-2.770;2022-12-07T07:07:08;3.00;93.50
73572;DHT22;61854;48.510;-2.770;2022-12-07T07:09:33;3.00;93.50
73572;DHT22;61854;48.510;-2.770;2022-12-07T07:11:59;2.90;93.70
73572;DHT22;61854;48.510;-2.770;2022-12-07T07:14:24;2.90;93.90
73572;DHT22;61854;48.510;-2.770;2022-12-07T07:16:50;2.90;93.80
73572;DHT22;61854;48.510;-2.770;2022-12-07T07:19:16;2.90;93.60
73572;DHT22;61854;48.510;-2.770;2022-12-07T07:21:41;2.90;93.50
73572;DHT22;61854;48.510;-2.770;2022-12-07T07:24:07;2.90;93.60
73572;DHT22;61854;48.510;-2.770;2022-12-07T07:26:33;2.80;93.60
73572;DHT22;61854;48.510;-2.770;2022-12-07T07:28:58;2.80;93.80
73572;DHT22;61854;48.510;-2.770;2022-12-07T07:31:24;2.80;93.80
73572;DHT22;61854;48.510;-2.770;2022-12-07T07:33:49;2.80;93.80
73572;DHT22;61854;48.510;-2.770;2022-12-07T07:36:15;2.80;93.90
73572;DHT22;61854;48.510;-2.770;2022-12-07T07:38:40;2.80;93.90
73572;DHT22;61854;48.510;-2.770;2022-12-07T07:41:06;2.90;93.90
73572;DHT22;61854;48.510;-2.770;2022-12-07T07:43:32;2.90;94.00
73572;DHT22;61854;48.510;-2.770;2022-12-07T07:45:58;3.00;94.00
73572;DHT22;61854;48.510;-2.770;2022-12-07T07:48:24;3.00;93.90
73572;DHT22;61854;48.510;-2.770;2022-12-07T07:50:51;3.00;93.90
73572;DHT22;61854;48.510;-2.770;2022-12-07T07:53:16;3.10;93.90
73572;DHT22;61854;48.510;-2.770;2022-12-07T07:55:50;3.10;93.80
73572;DHT22;61854;48.510;-2.770;2022-12-07T07:58:16;3.20;93.50
73572;DHT22;61854;48.510;-2.770;2022-12-07T08:00:41;3.30;93.30
73572;DHT22;61854;48.510;-2.770;2022-12-07T08:03:07;3.30;92.90
73572;DHT22;61854;48.510;-2.770;2022-12-07T08:05:33;3.30;92.80
73572;DHT22;61854;48.510;-2.770;2022-12-07T08:07:58;3.30;92.70
73572;DHT22;61854;48.510;-2.770;2022-12-07T08:10:24;3.30;92.80
73572;DHT22;61854;48.510;-2.770;2022-12-07T08:12:50;3.30;92.90
73572;DHT22;61854;48.510;-2.770;2022-12-07T08:15:37;3.40;93.40
73572;DHT22;61854;48.510;-2.770;2022-12-07T08:18:03;3.50;92.80
73572;DHT22;61854;48.510;-2.770;2022-12-07T08:20:30;3.60;92.60
73572;DHT22;61854;48.510;-2.770;2022-12-07T08:22:57;3.70;92.70
73572;DHT22;61854;48.510;-2.770;2022-12-07T08:25:22;3.70;92.90
73572;DHT22;61854;48.510;-2.770;2022-12-07T08:27:49;3.90;92.70
73572;DHT22;61854;48.510;-2.770;2022-12-07T08:30:15;3.90;92.80
73572;DHT22;61854;48.510;-2.770;2022-12-07T08:32:41;4.00;92.60
73572;DHT22;61854;48.510;-2.770;2022-12-07T08:35:07;4.10;92.70
73572;DHT22;61854;48.510;-2.770;2022-12-07T08:37:33;4.10;92.70
73572;DHT22;61854;48.510;-2.770;2022-12-07T08:39:59;4.10;92.70
73572;DHT22;61854;48.510;-2.770;2022-12-07T08:42:24;4.10;92.70
73572;DHT22;61854;48.510;-2.770;2022-12-07T08:44:57;4.10;92.70
73572;DHT22;61854;48.510;-2.770;2022-12-07T08:47:24;4.10;92.90
73572;DHT22;61854;48.510;-2.770;2022-12-07T08:49:51;4.00;92.60
73572;DHT22;61854;48.510;-2.770;2022-12-07T08:52:18;4.00;92.70
73572;DHT22;61854;48.510;-2.770;2022-12-07T08:54:44;3.90;92.80
73572;DHT22;61854;48.510;-2.770;2022-12-07T08:57:10;3.90;93.10
73572;DHT22;61854;48.510;-2.770;2022-12-07T08:59:37;3.90;93.40
73572;DHT22;61854;48.510;-2.770;2022-12-07T09:02:04;3.90;93.70
73572;DHT22;61854;48.510;-2.770;2022-12-07T09:04:30;3.90;93.90
73572;DHT22;61854;48.510;-2.770;2022-12-07T09:06:55;4.00;94.30
73572;DHT22;61854;48.510;-2.770;2022-12-07T09:09:21;4.00;94.30
73572;DHT22;61854;48.510;-2.770;2022-12-07T09:11:47;4.00;94.20
73572;DHT22;61854;48.510;-2.770;2022-12-07T09:14:12;4.10;94.40
73572;DHT22;61854;48.510;-2.770;2022-12-07T09:16:39;4.10;94.50
73572;DHT22;61854;48.510;-2.770;2022-12-07T09:19:04;4.10;94.80
73572;DHT22;61854;48.510;-2.770;2022-12-07T09:21:30;4.10;94.80
73572;DHT22;61854;48.510;-2.770;2022-12-07T09:23:56;4.20;95.20
73572;DHT22;61854;48.510;-2.770;2022-12-07T09:26:22;4.20;94.90
73572;DHT22;61854;48.510;-2.770;2022-12-07T09:28:47;4.30;94.90
73572;DHT22;61854;48.510;-2.770;2022-12-07T09:31:13;4.30;94.70
73572;DHT22;61854;48.510;-2.770;2022-12-07T09:33:39;4.30;94.50
73572;DHT22;61854;48.510;-2.770;2022-12-07T09:36:04;4.20;94.50
73572;DHT22;61854;48.510;-2.770;2022-12-07T09:38:30;4.20;94.50
73572;DHT22;61854;48.510;-2.770;2022-12-07T09:40:56;4.20;94.50
73572;DHT22;61854;48.510;-2.770;2022-12-07T09:43:23;4.10;94.50
73572;DHT22;61854;48.510;-2.770;2022-12-07T09:45:54;4.00;94.50
73572;DHT22;61854;48.510;-2.770;2022-12-07T09:48:34;4.10;94.70
73572;DHT22;61854;48.510;-2.770;2022-12-07T09:51:02;4.00;94.80
73572;DHT22;61854;48.510;-2.770;2022-12-07T09:53:37;4.10;94.90
73572;DHT22;61854;48.510;-2.770;2022-12-07T09:56:04;4.10;95.00
73572;DHT22;61854;48.510;-2.770;2022-12-07T09:58:31;4.10;94.80
73572;DHT22;61854;48.510;-2.770;2022-12-07T10:01:20;4.20;94.90
73572;DHT22;61854;48.510;-2.770;2022-12-07T10:06:15;4.30;94.50
73572;DHT22;61854;48.510;-2.770;2022-12-07T10:08:41;4.50;94.30
73572;DHT22;61854;48.510;-2.770;2022-12-07T10:11:09;4.60;94.40
73572;DHT22;61854;48.510;-2.770;2022-12-07T10:13:51;4.80;94.00
73572;DHT22;61854;48.510;-2.770;2022-12-07T10:18:54;5.00;93.60
73572;DHT22;61854;48.510;-2.770;2022-12-07T10:21:22;5.00;93.50
73572;DHT22;61854;48.510;-2.770;2022-12-07T10:26:40;4.90;93.80
73572;DHT22;61854;48.510;-2.770;2022-12-07T10:29:32;4.90;93.90
73572;DHT22;61854;48.510;-2.770;2022-12-07T10:32:00;4.90;94.30
73572;DHT22;61854;48.510;-2.770;2022-12-07T10:34:37;4.90;94.40
73572;DHT22;61854;48.510;-2.770;2022-12-07T10:39:56;5.00;95.10
73572;DHT22;61854;48.510;-2.770;2022-12-07T10:42:30;5.20;95.30
73572;DHT22;61854;48.510;-2.770;2022-12-07T10:45:16;5.30;95.20
73572;DHT22;61854;48.510;-2.770;2022-12-07T10:47:59;5.50;94.50
73572;DHT22;61854;48.510;-2.770;2022-12-07T10:53:51;5.90;93.80
73572;DHT22;61854;48.510;-2.770;2022-12-07T11:01:43;6.20;93.00
73572;DHT22;61854;48.510;-2.770;2022-12-07T11:05:05;6.20;92.90
73572;DHT22;61854;48.510;-2.770;2022-12-07T11:07:43;6.40;93.60
73572;DHT22;61854;48.510;-2.770;2022-12-07T11:18:49;6.80;91.70
73572;DHT22;61854;48.510;-2.770;2022-12-07T11:27:33;6.90;91.50
73572;DHT22;61854;48.510;-2.770;2022-12-07T11:30:19;6.90;91.80
73572;DHT22;61854;48.510;-2.770;2022-12-07T11:33:08;7.10;91.70
73572;DHT22;61854;48.510;-2.770;2022-12-07T11:36:26;7.20;91.10
73572;DHT22;61854;48.510;-2.770;2022-12-07T11:39:08;7.40;90.20
73572;DHT22;61854;48.510;-2.770;2022-12-07T11:41:39;7.50;90.40
73572;DHT22;61854;48.510;-2.770;2022-12-07T11:44:08;7.50;89.50
73572;DHT22;61854;48.510;-2.770;2022-12-07T11:50:07;7.60;90.30
73572;DHT22;61854;48.510;-2.770;2022-12-07T11:54:53;7.60;89.60
73572;DHT22;61854;48.510;-2.770;2022-12-07T11:57:38;7.60;90.10
73572;DHT22;61854;48.510;-2.770;2022-12-07T12:02:58;7.70;89.90
73572;DHT22;61854;48.510;-2.770;2022-12-07T12:05:25;7.60;89.20
73572;DHT22;61854;48.510;-2.770;2022-12-07T12:11:05;7.50;90.10
73572;DHT22;61854;48.510;-2.770;2022-12-07T12:14:00;7.40;90.00
73572;DHT22;61854;48.510;-2.770;2022-12-07T12:22:17;7.50;90.10
73572;DHT22;61854;48.510;-2.770;2022-12-07T12:24:44;7.70;89.50
73572;DHT22;61854;48.510;-2.770;2022-12-07T12:27:25;7.80;89.90
73572;DHT22;61854;48.510;-2.770;2022-12-07T12:29:57;7.90;88.30
73572;DHT22;61854;48.510;-2.770;2022-12-07T12:35:19;7.80;89.60
73572;DHT22;61854;48.510;-2.770;2022-12-07T12:37:47;7.80;90.00
73572;DHT22;61854;48.510;-2.770;2022-12-07T12:45:30;7.50;90.80
73572;DHT22;61854;48.510;-2.770;2022-12-07T12:48:29;7.50;91.10
73572;DHT22;61854;48.510;-2.770;2022-12-07T12:54:20;7.40;91.50
73572;DHT22;61854;48.510;-2.770;2022-12-07T12:57:06;7.40;92.00
73572;DHT22;61854;48.510;-2.770;2022-12-07T13:00:00;7.40;91.70
73572;DHT22;61854;48.510;-2.770;2022-12-07T13:02:39;7.40;92.60
73572;DHT22;61854;48.510;-2.770;2022-12-07T13:13:00;7.30;92.10
73572;DHT22;61854;48.510;-2.770;2022-12-07T13:16:40;7.30;93.10
73572;DHT22;61854;48.510;-2.770;2022-12-07T13:18:41;7.30;93.00
73572;DHT22;61854;48.510;-2.770;2022-12-07T13:23:54;7.30;93.20
73572;DHT22;61854;48.510;-2.770;2022-12-07T13:29:11;7.30;93.30
73572;DHT22;61854;48.510;-2.770;2022-12-07T13:31:41;7.30;93.70
73572;DHT22;61854;48.510;-2.770;2022-12-07T13:34:27;7.20;93.90
73572;DHT22;61854;48.510;-2.770;2022-12-07T13:36:53;7.20;94.00
73572;DHT22;61854;48.510;-2.770;2022-12-07T13:39:24;7.20;94.10
73572;DHT22;61854;48.510;-2.770;2022-12-07T13:41:56;7.20;94.40
73572;DHT22;61854;48.510;-2.770;2022-12-07T13:44:24;7.30;94.30
73572;DHT22;61854;48.510;-2.770;2022-12-07T13:51:47;7.40;94.10
73572;DHT22;61854;48.510;-2.770;2022-12-07T13:54:14;7.40;94.50
73572;DHT22;61854;48.510;-2.770;2022-12-07T13:56:40;7.40;94.20
73572;DHT22;61854;48.510;-2.770;2022-12-07T13:59:16;7.40;94.00
73572;DHT22;61854;48.510;-2.770;2022-12-07T14:01:45;7.40;94.20
73572;DHT22;61854;48.510;-2.770;2022-12-07T14:04:32;7.40;93.70
73572;DHT22;61854;48.510;-2.770;2022-12-07T14:06:58;7.40;93.70
73572;DHT22;61854;48.510;-2.770;2022-12-07T14:09:26;7.40;93.90
73572;DHT22;61854;48.510;-2.770;2022-12-07T14:11:53;7.30;93.30
73572;DHT22;61854;48.510;-2.770;2022-12-07T14:14:30;7.30;93.10
73572;DHT22;61854;48.510;-2.770;2022-12-07T14:17:08;7.30;93.20
73572;DHT22;61854;48.510;-2.770;2022-12-07T14:24:49;7.30;93.00
73572;DHT22;61854;48.510;-2.770;2022-12-07T14:27:22;7.30;92.90
73572;DHT22;61854;48.510;-2.770;2022-12-07T14:29:51;7.30;93.00
73572;DHT22;61854;48.510;-2.770;2022-12-07T14:32:21;7.30;93.10
73572;DHT22;61854;48.510;-2.770;2022-12-07T14:34:59;7.30;92.90
73572;DHT22;61854;48.510;-2.770;2022-12-07T14:37:26;7.30;93.00
73572;DHT22;61854;48.510;-2.770;2022-12-07T14:39:52;7.20;93.10
73572;DHT22;61854;48.510;-2.770;2022-12-07T14:42:18;7.20;93.00
73572;DHT22;61854;48.510;-2.770;2022-12-07T14:44:44;7.20;93.00
73572;DHT22;61854;48.510;-2.770;2022-12-07T14:47:10;7.20;93.40
73572;DHT22;61854;48.510;-2.770;2022-12-07T14:49:36;7.20;93.60
73572;DHT22;61854;48.510;-2.770;2022-12-07T14:52:02;7.10;93.80
73572;DHT22;61854;48.510;-2.770;2022-12-07T14:54:31;7.10;93.90
73572;DHT22;61854;48.510;-2.770;2022-12-07T14:56:57;7.10;93.70
73572;DHT22;61854;48.510;-2.770;2022-12-07T14:59:22;7.00;93.70
73572;DHT22;61854;48.510;-2.770;2022-12-07T15:01:49;7.00;94.00
73572;DHT22;61854;48.510;-2.770;2022-12-07T15:04:14;7.00;94.40
73572;DHT22;61854;48.510;-2.770;2022-12-07T15:06:40;7.00;94.30
73572;DHT22;61854;48.510;-2.770;2022-12-07T15:09:10;6.90;94.80
73572;DHT22;61854;48.510;-2.770;2022-12-07T15:11:36;6.90;95.00
73572;DHT22;61854;48.510;-2.770;2022-12-07T15:14:02;6.90;95.00
73572;DHT22;61854;48.510;-2.770;2022-12-07T15:16:34;6.90;95.00
73572;DHT22;61854;48.510;-2.770;2022-12-07T15:18:59;6.90;94.90
73572;DHT22;61854;48.510;-2.770;2022-12-07T15:21:25;6.90;94.90
73572;DHT22;61854;48.510;-2.770;2022-12-07T15:23:51;6.90;95.10
73572;DHT22;61854;48.510;-2.770;2022-12-07T15:26:17;6.90;95.10
73572;DHT22;61854;48.510;-2.770;2022-12-07T15:28:42;6.90;95.40
73572;DHT22;61854;48.510;-2.770;2022-12-07T15:31:15;6.80;95.50
73572;DHT22;61854;48.510;-2.770;2022-12-07T15:33:42;6.80;95.50
73572;DHT22;61854;48.510;-2.770;2022-12-07T15:36:08;6.80;95.50
73572;DHT22;61854;48.510;-2.770;2022-12-07T15:38:39;6.80;95.00
73572;DHT22;61854;48.510;-2.770;2022-12-07T15:41:04;6.80;94.70
73572;DHT22;61854;48.510;-2.770;2022-12-07T15:43:30;6.80;95.10
73572;DHT22;61854;48.510;-2.770;2022-12-07T15:46:14;6.70;94.70
73572;DHT22;61854;48.510;-2.770;2022-12-07T15:48:40;6.70;94.80
73572;DHT22;61854;48.510;-2.770;2022-12-07T15:51:07;6.70;94.80
73572;DHT22;61854;48.510;-2.770;2022-12-07T15:53:34;6.70;95.20
73572;DHT22;61854;48.510;-2.770;2022-12-07T15:56:00;6.70;95.30
73572;DHT22;61854;48.510;-2.770;2022-12-07T15:58:26;6.70;95.30
73572;DHT22;61854;48.510;-2.770;2022-12-07T16:00:52;6.60;95.40
73572;DHT22;61854;48.510;-2.770;2022-12-07T16:03:17;6.60;95.60
73572;DHT22;61854;48.510;-2.770;2022-12-07T16:05:51;6.60;95.40
73572;DHT22;61854;48.510;-2.770;2022-12-07T16:08:18;6.60;95.70
73572;DHT22;61854;48.510;-2.770;2022-12-07T16:10:44;6.50;95.80
73572;DHT22;61854;48.510;-2.770;2022-12-07T16:13:10;6.60;95.80
73572;DHT22;61854;48.510;-2.770;2022-12-07T16:15:40;6.50;95.80
73572;DHT22;61854;48.510;-2.770;2022-12-07T16:18:05;6.50;95.80
73572;DHT22;61854;48.510;-2.770;2022-12-07T16:20:31;6.50;95.90
73572;DHT22;61854;48.510;-2.770;2022-12-07T16:22:57;6.50;95.80
73572;DHT22;61854;48.510;-2.770;2022-12-07T16:25:23;6.60;95.90
73572;DHT22;61854;48.510;-2.770;2022-12-07T16:27:49;6.50;95.70
73572;DHT22;61854;48.510;-2.770;2022-12-07T16:30:15;6.50;95.70
73572;DHT22;61854;48.510;-2.770;2022-12-07T16:32:42;6.50;95.80
73572;DHT22;61854;48.510;-2.770;2022-12-07T16:35:11;6.50;96.00
73572;DHT22;61854;48.510;-2.770;2022-12-07T16:37:37;6.50;96.30
73572;DHT22;61854;48.510;-2.770;2022-12-07T16:40:03;6.50;96.50
73572;DHT22;61854;48.510;-2.770;2022-12-07T16:42:33;6.50;96.70
73572;DHT22;61854;48.510;-2.770;2022-12-07T16:44:59;6.50;96.90
73572;DHT22;61854;48.510;-2.770;2022-12-07T16:47:24;6.50;97.00
73572;DHT22;61854;48.510;-2.770;2022-12-07T16:49:50;6.50;97.10
73572;DHT22;61854;48.510;-2.770;2022-12-07T16:52:20;6.50;97.30
73572;DHT22;61854;48.510;-2.770;2022-12-07T16:54:47;6.50;97.50
73572;DHT22;61854;48.510;-2.770;2022-12-07T16:57:13;6.40;97.60
73572;DHT22;61854;48.510;-2.770;2022-12-07T16:59:39;6.40;98.20
73572;DHT22;61854;48.510;-2.770;2022-12-07T17:02:04;6.40;97.80
73572;DHT22;61854;48.510;-2.770;2022-12-07T17:04:32;6.40;98.00
73572;DHT22;61854;48.510;-2.770;2022-12-07T17:06:58;6.30;98.10
73572;DHT22;61854;48.510;-2.770;2022-12-07T17:09:24;6.30;98.10
73572;DHT22;61854;48.510;-2.770;2022-12-07T17:11:50;6.20;98.00
73572;DHT22;61854;48.510;-2.770;2022-12-07T17:14:16;6.10;98.00
73572;DHT22;61854;48.510;-2.770;2022-12-07T17:17:01;6.10;97.90
73572;DHT22;61854;48.510;-2.770;2022-12-07T17:19:26;6.00;97.90
73572;DHT22;61854;48.510;-2.770;2022-12-07T17:21:52;6.00;97.90
73572;DHT22;61854;48.510;-2.770;2022-12-07T17:24:18;5.90;97.90
73572;DHT22;61854;48.510;-2.770;2022-12-07T17:26:44;5.90;98.00
73572;DHT22;61854;48.510;-2.770;2022-12-07T17:29:12;5.80;97.90
73572;DHT22;61854;48.510;-2.770;2022-12-07T17:31:38;5.70;98.00
73572;DHT22;61854;48.510;-2.770;2022-12-07T17:34:07;5.70;98.00
73572;DHT22;61854;48.510;-2.770;2022-12-07T17:36:34;5.60;97.90
73572;DHT22;61854;48.510;-2.770;2022-12-07T17:38:59;5.50;97.80
73572;DHT22;61854;48.510;-2.770;2022-12-07T17:41:27;5.40;97.60
73572;DHT22;61854;48.510;-2.770;2022-12-07T17:44:14;5.30;97.60
73572;DHT22;61854;48.510;-2.770;2022-12-07T17:46:41;5.30;97.60